This is the latest recevied weather packets stored in our database for station/object OK1TBF-15. If no packets are shown the sender has not sent any weather packets the latest 1 day(s).
| Time | Temp. | Humidity | Pressure | Rain* | Wind** | Luminosity | Snow |
|---|---|---|---|---|---|---|---|
| 1778093865 | 14.44° C | 70% | 1005.8 hPa | - | - | - | - |
| 1778092666 | 14.44° C | 72% | 1005.7 hPa | - | - | - | - |
| 1778089065 | 16.11° C | 62% | 1004.7 hPa | - | - | - | - |
| 1778088465 | 16.67° C | 61% | 1004.8 hPa | - | - | - | - |
| 1778087865 | 16.67° C | 61% | 1004.8 hPa | - | - | - | - |
| 1778086665 | 16.67° C | 60% | 1004.8 hPa | - | - | - | - |
| 1778086065 | 16.67° C | 61% | 1005 hPa | - | - | - | - |
| 1778085465 | 16.67° C | 59% | 1005.1 hPa | - | - | - | - |
| 1778084265 | 20° C | 46% | 1004.7 hPa | - | - | - | - |
| 1778083665 | 19.44° C | 46% | 1004.9 hPa | - | - | - | - |
| 1778076979 | 20° C | 45% | 1006.1 hPa | - | - | - | - |
| 1778075779 | 20° C | 45% | 1006.3 hPa | - | - | - | - |
| 1778072179 | 21.11° C | 39% | 1007 hPa | - | - | - | - |
| 1778070379 | 21.67° C | 43% | 1007.3 hPa | - | - | - | - |
| 1778068579 | 20.56° C | 44% | 1007.5 hPa | - | - | - | - |
| 1778067379 | 21.67° C | 43% | 1007.6 hPa | - | - | - | - |
| 1778065579 | 20.56° C | 44% | 1007.8 hPa | - | - | - | - |
| 1778064979 | 20.56° C | 43% | 1007.8 hPa | - | - | - | - |
| 1778064379 | 20° C | 43% | 1007.9 hPa | - | - | - | - |
| 1778063779 | 20.56° C | 47% | 1008.1 hPa | - | - | - | - |
| 1778063179 | 20° C | 44% | 1008.2 hPa | - | - | - | - |
| 1778061979 | 20° C | 48% | 1008.3 hPa | - | - | - | - |
| 1778061379 | 19.44° C | 47% | 1008.4 hPa | - | - | - | - |
| 1778060779 | 18.89° C | 52% | 1008.3 hPa | - | - | - | - |
| 1778060179 | 18.89° C | 51% | 1008.4 hPa | - | - | - | - |
* Rain since midnight (hover to see other rain measurements)
** Current wind speed in m/s (hover to see current wind gust speed)